sensor_id;sensor_type;location;lat;lon;timestamp;P1;P2;P0
71872;PMS5003;59745;52.924;-2.388;2022-07-17T00:03:01;18;16;
71872;PMS5003;59745;52.924;-2.388;2022-07-17T00:05:25;18;16;
71872;PMS5003;59745;52.924;-2.388;2022-07-17T00:07:51;14;14;
71872;PMS5003;59745;52.924;-2.388;2022-07-17T00:10:16;15;15;
71872;PMS5003;59745;52.924;-2.388;2022-07-17T00:12:42;16;16;
71872;PMS5003;59745;52.924;-2.388;2022-07-17T00:15:07;15;15;
71872;PMS5003;59745;52.924;-2.388;2022-07-17T00:17:32;14;13;
71872;PMS5003;59745;52.924;-2.388;2022-07-17T00:19:58;19;17;
71872;PMS5003;59745;52.924;-2.388;2022-07-17T00:22:23;15;15;
71872;PMS5003;59745;52.924;-2.388;2022-07-17T00:24:48;17;16;
71872;PMS5003;59745;52.924;-2.388;2022-07-17T00:27:14;19;18;
71872;PMS5003;59745;52.924;-2.388;2022-07-17T00:29:39;17;17;
71872;PMS5003;59745;52.924;-2.388;2022-07-17T00:32:05;18;17;
71872;PMS5003;59745;52.924;-2.388;2022-07-17T00:34:30;21;19;
71872;PMS5003;59745;52.924;-2.388;2022-07-17T00:36:56;18;17;
71872;PMS5003;59745;52.924;-2.388;2022-07-17T00:39:21;17;17;
71872;PMS5003;59745;52.924;-2.388;2022-07-17T00:41:46;20;19;
71872;PMS5003;59745;52.924;-2.388;2022-07-17T00:44:11;15;15;
71872;PMS5003;59745;52.924;-2.388;2022-07-17T00:46:37;18;17;
71872;PMS5003;59745;52.924;-2.388;2022-07-17T00:49:02;17;16;
71872;PMS5003;59745;52.924;-2.388;2022-07-17T00:51:28;19;16;
71872;PMS5003;59745;52.924;-2.388;2022-07-17T00:53:53;15;14;
71872;PMS5003;59745;52.924;-2.388;2022-07-17T00:56:19;15;14;
71872;PMS5003;59745;52.924;-2.388;2022-07-17T00:58:44;15;14;
71872;PMS5003;59745;52.924;-2.388;2022-07-17T01:01:09;15;15;
71872;PMS5003;59745;52.924;-2.388;2022-07-17T01:03:35;17;16;
71872;PMS5003;59745;52.924;-2.388;2022-07-17T01:06:01;17;15;
71872;PMS5003;59745;52.924;-2.388;2022-07-17T01:08:26;16;16;
71872;PMS5003;59745;52.924;-2.388;2022-07-17T01:10:51;18;17;
71872;PMS5003;59745;52.924;-2.388;2022-07-17T01:13:17;20;17;
71872;PMS5003;59745;52.924;-2.388;2022-07-17T01:15:42;20;19;
71872;PMS5003;59745;52.924;-2.388;2022-07-17T01:18:09;18;18;
71872;PMS5003;59745;52.924;-2.388;2022-07-17T01:20:33;22;21;
71872;PMS5003;59745;52.924;-2.388;2022-07-17T01:22:59;18;18;
71872;PMS5003;59745;52.924;-2.388;2022-07-17T01:25:24;17;16;
71872;PMS5003;59745;52.924;-2.388;2022-07-17T01:27:50;23;21;
71872;PMS5003;59745;52.924;-2.388;2022-07-17T01:30:15;19;17;
71872;PMS5003;59745;52.924;-2.388;2022-07-17T01:32:41;14;14;
71872;PMS5003;59745;52.924;-2.388;2022-07-17T01:35:07;13;13;
71872;PMS5003;59745;52.924;-2.388;2022-07-17T01:37:32;18;17;
71872;PMS5003;59745;52.924;-2.388;2022-07-17T01:39:57;21;19;
71872;PMS5003;59745;52.924;-2.388;2022-07-17T01:42:24;19;17;
71872;PMS5003;59745;52.924;-2.388;2022-07-17T01:44:48;25;22;
71872;PMS5003;59745;52.924;-2.388;2022-07-17T01:47:13;19;17;
71872;PMS5003;59745;52.924;-2.388;2022-07-17T01:49:38;19;17;
71872;PMS5003;59745;52.924;-2.388;2022-07-17T01:52:04;20;19;
71872;PMS5003;59745;52.924;-2.388;2022-07-17T01:54:28;19;17;
71872;PMS5003;59745;52.924;-2.388;2022-07-17T01:56:54;17;17;
71872;PMS5003;59745;52.924;-2.388;2022-07-17T01:59:19;16;16;
71872;PMS5003;59745;52.924;-2.388;2022-07-17T02:01:44;20;19;
71872;PMS5003;59745;52.924;-2.388;2022-07-17T02:04:09;25;23;
71872;PMS5003;59745;52.924;-2.388;2022-07-17T02:06:35;23;20;
71872;PMS5003;59745;52.924;-2.388;2022-07-17T02:09:00;27;25;
71872;PMS5003;59745;52.924;-2.388;2022-07-17T02:11:26;25;24;
71872;PMS5003;59745;52.924;-2.388;2022-07-17T02:13:51;24;22;
71872;PMS5003;59745;52.924;-2.388;2022-07-17T02:16:17;22;19;
71872;PMS5003;59745;52.924;-2.388;2022-07-17T02:18:42;23;21;
71872;PMS5003;59745;52.924;-2.388;2022-07-17T02:21:08;24;24;
71872;PMS5003;59745;52.924;-2.388;2022-07-17T02:23:33;19;17;
71872;PMS5003;59745;52.924;-2.388;2022-07-17T02:25:59;15;15;
71872;PMS5003;59745;52.924;-2.388;2022-07-17T02:28:24;21;18;
71872;PMS5003;59745;52.924;-2.388;2022-07-17T02:30:49;23;23;
71872;PMS5003;59745;52.924;-2.388;2022-07-17T02:33:14;19;17;
71872;PMS5003;59745;52.924;-2.388;2022-07-17T02:35:40;27;26;
71872;PMS5003;59745;52.924;-2.388;2022-07-17T02:38:05;24;21;
71872;PMS5003;59745;52.924;-2.388;2022-07-17T02:40:31;25;22;
71872;PMS5003;59745;52.924;-2.388;2022-07-17T02:42:56;21;21;
71872;PMS5003;59745;52.924;-2.388;2022-07-17T02:45:21;20;20;
71872;PMS5003;59745;52.924;-2.388;2022-07-17T02:47:47;27;25;
71872;PMS5003;59745;52.924;-2.388;2022-07-17T02:50:12;25;24;
71872;PMS5003;59745;52.924;-2.388;2022-07-17T02:52:37;29;28;
71872;PMS5003;59745;52.924;-2.388;2022-07-17T02:55:03;25;24;
71872;PMS5003;59745;52.924;-2.388;2022-07-17T02:57:28;31;24;
71872;PMS5003;59745;52.924;-2.388;2022-07-17T02:59:53;20;18;
71872;PMS5003;59745;52.924;-2.388;2022-07-17T03:02:19;21;19;
71872;PMS5003;59745;52.924;-2.388;2022-07-17T03:04:44;26;24;
71872;PMS5003;59745;52.924;-2.388;2022-07-17T03:07:10;25;23;
71872;PMS5003;59745;52.924;-2.388;2022-07-17T03:09:35;28;27;
71872;PMS5003;59745;52.924;-2.388;2022-07-17T03:12:01;21;20;
71872;PMS5003;59745;52.924;-2.388;2022-07-17T03:14:26;22;20;
71872;PMS5003;59745;52.924;-2.388;2022-07-17T03:16:51;22;20;
71872;PMS5003;59745;52.924;-2.388;2022-07-17T03:19:16;26;24;
71872;PMS5003;59745;52.924;-2.388;2022-07-17T03:21:42;22;20;
71872;PMS5003;59745;52.924;-2.388;2022-07-17T03:24:08;22;21;
71872;PMS5003;59745;52.924;-2.388;2022-07-17T03:26:33;21;21;
71872;PMS5003;59745;52.924;-2.388;2022-07-17T03:28:59;27;24;
71872;PMS5003;59745;52.924;-2.388;2022-07-17T03:31:24;19;16;
71872;PMS5003;59745;52.924;-2.388;2022-07-17T03:33:49;23;20;
71872;PMS5003;59745;52.924;-2.388;2022-07-17T03:36:14;22;22;
71872;PMS5003;59745;52.924;-2.388;2022-07-17T03:38:40;27;25;
71872;PMS5003;59745;52.924;-2.388;2022-07-17T03:41:05;21;20;
71872;PMS5003;59745;52.924;-2.388;2022-07-17T03:43:31;22;21;
71872;PMS5003;59745;52.924;-2.388;2022-07-17T03:45:56;25;23;
71872;PMS5003;59745;52.924;-2.388;2022-07-17T03:48:21;21;20;
71872;PMS5003;59745;52.924;-2.388;2022-07-17T03:50:46;21;20;
71872;PMS5003;59745;52.924;-2.388;2022-07-17T03:53:11;22;20;
71872;PMS5003;59745;52.924;-2.388;2022-07-17T03:55:36;18;18;
71872;PMS5003;59745;52.924;-2.388;2022-07-17T03:58:01;24;24;
71872;PMS5003;59745;52.924;-2.388;2022-07-17T04:00:32;29;26;
71872;PMS5003;59745;52.924;-2.388;2022-07-17T04:02:52;24;23;
71872;PMS5003;59745;52.924;-2.388;2022-07-17T04:05:18;30;24;
71872;PMS5003;59745;52.924;-2.388;2022-07-17T04:07:44;26;24;
71872;PMS5003;59745;52.924;-2.388;2022-07-17T04:10:11;30;28;
71872;PMS5003;59745;52.924;-2.388;2022-07-17T04:12:35;23;23;
71872;PMS5003;59745;52.924;-2.388;2022-07-17T04:15:00;22;22;
71872;PMS5003;59745;52.924;-2.388;2022-07-17T04:17:25;24;24;
71872;PMS5003;59745;52.924;-2.388;2022-07-17T04:19:51;24;23;
71872;PMS5003;59745;52.924;-2.388;2022-07-17T04:22:16;25;25;
71872;PMS5003;59745;52.924;-2.388;2022-07-17T04:24:41;24;24;
71872;PMS5003;59745;52.924;-2.388;2022-07-17T04:27:06;27;26;
71872;PMS5003;59745;52.924;-2.388;2022-07-17T04:29:32;25;24;
71872;PMS5003;59745;52.924;-2.388;2022-07-17T04:31:57;25;23;
71872;PMS5003;59745;52.924;-2.388;2022-07-17T04:34:23;28;23;
71872;PMS5003;59745;52.924;-2.388;2022-07-17T04:36:48;27;24;
71872;PMS5003;59745;52.924;-2.388;2022-07-17T04:39:14;22;21;
71872;PMS5003;59745;52.924;-2.388;2022-07-17T04:41:39;23;23;
71872;PMS5003;59745;52.924;-2.388;2022-07-17T04:44:04;24;23;
71872;PMS5003;59745;52.924;-2.388;2022-07-17T04:46:30;28;27;
71872;PMS5003;59745;52.924;-2.388;2022-07-17T04:48:55;24;23;
71872;PMS5003;59745;52.924;-2.388;2022-07-17T04:51:21;27;23;
71872;PMS5003;59745;52.924;-2.388;2022-07-17T04:53:46;23;22;
71872;PMS5003;59745;52.924;-2.388;2022-07-17T04:56:11;31;24;
71872;PMS5003;59745;52.924;-2.388;2022-07-17T04:58:37;23;22;
71872;PMS5003;59745;52.924;-2.388;2022-07-17T05:01:02;29;26;
71872;PMS5003;59745;52.924;-2.388;2022-07-17T05:03:28;27;24;
71872;PMS5003;59745;52.924;-2.388;2022-07-17T05:05:53;22;21;
71872;PMS5003;59745;52.924;-2.388;2022-07-17T05:08:18;24;23;
71872;PMS5003;59745;52.924;-2.388;2022-07-17T05:10:44;22;22;
71872;PMS5003;59745;52.924;-2.388;2022-07-17T05:13:09;33;28;
71872;PMS5003;59745;52.924;-2.388;2022-07-17T05:15:35;29;27;
71872;PMS5003;59745;52.924;-2.388;2022-07-17T05:18:00;24;24;
71872;PMS5003;59745;52.924;-2.388;2022-07-17T05:20:26;21;20;
71872;PMS5003;59745;52.924;-2.388;2022-07-17T05:22:51;23;21;
71872;PMS5003;59745;52.924;-2.388;2022-07-17T05:25:17;34;30;
71872;PMS5003;59745;52.924;-2.388;2022-07-17T05:27:42;27;26;
71872;PMS5003;59745;52.924;-2.388;2022-07-17T05:30:07;27;26;
71872;PMS5003;59745;52.924;-2.388;2022-07-17T05:32:33;28;26;
71872;PMS5003;59745;52.924;-2.388;2022-07-17T05:34:58;24;22;
71872;PMS5003;59745;52.924;-2.388;2022-07-17T05:37:24;22;21;
71872;PMS5003;59745;52.924;-2.388;2022-07-17T05:39:50;26;23;
71872;PMS5003;59745;52.924;-2.388;2022-07-17T05:42:15;29;29;
71872;PMS5003;59745;52.924;-2.388;2022-07-17T05:44:41;24;23;
71872;PMS5003;59745;52.924;-2.388;2022-07-17T05:47:06;25;24;
71872;PMS5003;59745;52.924;-2.388;2022-07-17T05:49:32;23;22;
71872;PMS5003;59745;52.924;-2.388;2022-07-17T05:51:57;24;22;
71872;PMS5003;59745;52.924;-2.388;2022-07-17T05:54:22;29;27;
71872;PMS5003;59745;52.924;-2.388;2022-07-17T05:56:47;21;20;
71872;PMS5003;59745;52.924;-2.388;2022-07-17T05:59:13;25;23;
71872;PMS5003;59745;52.924;-2.388;2022-07-17T06:01:38;21;21;
71872;PMS5003;59745;52.924;-2.388;2022-07-17T06:04:03;25;25;
71872;PMS5003;59745;52.924;-2.388;2022-07-17T06:06:28;26;25;
71872;PMS5003;59745;52.924;-2.388;2022-07-17T06:08:54;25;25;
71872;PMS5003;59745;52.924;-2.388;2022-07-17T06:11:19;28;26;
71872;PMS5003;59745;52.924;-2.388;2022-07-17T06:13:44;32;26;
71872;PMS5003;59745;52.924;-2.388;2022-07-17T06:16:10;27;26;
71872;PMS5003;59745;52.924;-2.388;2022-07-17T06:18:35;27;24;
71872;PMS5003;59745;52.924;-2.388;2022-07-17T06:21:00;27;24;
71872;PMS5003;59745;52.924;-2.388;2022-07-17T06:23:25;27;24;
71872;PMS5003;59745;52.924;-2.388;2022-07-17T06:25:51;24;24;
71872;PMS5003;59745;52.924;-2.388;2022-07-17T06:28:17;28;26;
71872;PMS5003;59745;52.924;-2.388;2022-07-17T06:30:43;29;27;
71872;PMS5003;59745;52.924;-2.388;2022-07-17T06:33:08;29;25;
71872;PMS5003;59745;52.924;-2.388;2022-07-17T06:35:33;28;25;
71872;PMS5003;59745;52.924;-2.388;2022-07-17T06:37:59;26;25;
71872;PMS5003;59745;52.924;-2.388;2022-07-17T06:40:24;34;31;
71872;PMS5003;59745;52.924;-2.388;2022-07-17T06:42:50;28;27;
71872;PMS5003;59745;52.924;-2.388;2022-07-17T06:45:15;25;24;
71872;PMS5003;59745;52.924;-2.388;2022-07-17T06:47:40;24;22;
71872;PMS5003;59745;52.924;-2.388;2022-07-17T06:50:06;23;21;
71872;PMS5003;59745;52.924;-2.388;2022-07-17T06:52:31;23;22;
71872;PMS5003;59745;52.924;-2.388;2022-07-17T06:54:56;20;20;
71872;PMS5003;59745;52.924;-2.388;2022-07-17T06:57:22;26;26;
71872;PMS5003;59745;52.924;-2.388;2022-07-17T06:59:48;24;22;
71872;PMS5003;59745;52.924;-2.388;2022-07-17T07:02:13;15;15;
71872;PMS5003;59745;52.924;-2.388;2022-07-17T07:04:38;21;21;
71872;PMS5003;59745;52.924;-2.388;2022-07-17T07:07:03;24;22;
71872;PMS5003;59745;52.924;-2.388;2022-07-17T07:09:29;21;21;
71872;PMS5003;59745;52.924;-2.388;2022-07-17T07:11:54;19;16;
71872;PMS5003;59745;52.924;-2.388;2022-07-17T07:14:19;22;20;
71872;PMS5003;59745;52.924;-2.388;2022-07-17T07:16:45;17;16;
71872;PMS5003;59745;52.924;-2.388;2022-07-17T07:19:10;23;22;
71872;PMS5003;59745;52.924;-2.388;2022-07-17T07:21:36;21;21;
71872;PMS5003;59745;52.924;-2.388;2022-07-17T07:24:02;19;19;
71872;PMS5003;59745;52.924;-2.388;2022-07-17T07:26:27;20;19;
71872;PMS5003;59745;52.924;-2.388;2022-07-17T07:28:53;15;15;
71872;PMS5003;59745;52.924;-2.388;2022-07-17T07:31:18;20;19;
71872;PMS5003;59745;52.924;-2.388;2022-07-17T07:33:43;21;21;
71872;PMS5003;59745;52.924;-2.388;2022-07-17T07:36:09;15;14;
71872;PMS5003;59745;52.924;-2.388;2022-07-17T07:38:35;18;18;
71872;PMS5003;59745;52.924;-2.388;2022-07-17T07:41:00;15;15;
71872;PMS5003;59745;52.924;-2.388;2022-07-17T07:43:26;19;17;
71872;PMS5003;59745;52.924;-2.388;2022-07-17T07:45:52;21;19;
71872;PMS5003;59745;52.924;-2.388;2022-07-17T07:48:18;22;21;
71872;PMS5003;59745;52.924;-2.388;2022-07-17T07:50:44;20;19;
71872;PMS5003;59745;52.924;-2.388;2022-07-17T07:53:09;17;16;
71872;PMS5003;59745;52.924;-2.388;2022-07-17T07:55:35;16;15;
71872;PMS5003;59745;52.924;-2.388;2022-07-17T07:58:01;17;16;
71872;PMS5003;59745;52.924;-2.388;2022-07-17T08:00:26;16;16;
71872;PMS5003;59745;52.924;-2.388;2022-07-17T08:02:52;14;14;
71872;PMS5003;59745;52.924;-2.388;2022-07-17T08:05:18;16;14;
71872;PMS5003;59745;52.924;-2.388;2022-07-17T08:07:43;18;16;
71872;PMS5003;59745;52.924;-2.388;2022-07-17T08:10:09;9;9;
71872;PMS5003;59745;52.924;-2.388;2022-07-17T08:12:35;17;15;
71872;PMS5003;59745;52.924;-2.388;2022-07-17T08:15:01;12;12;
71872;PMS5003;59745;52.924;-2.388;2022-07-17T08:17:26;14;13;
71872;PMS5003;59745;52.924;-2.388;2022-07-17T08:19:52;11;11;
71872;PMS5003;59745;52.924;-2.388;2022-07-17T08:22:17;17;14;
71872;PMS5003;59745;52.924;-2.388;2022-07-17T08:24:43;11;11;
71872;PMS5003;59745;52.924;-2.388;2022-07-17T08:27:09;11;11;
71872;PMS5003;59745;52.924;-2.388;2022-07-17T08:29:35;12;12;
71872;PMS5003;59745;52.924;-2.388;2022-07-17T08:32:00;13;13;
71872;PMS5003;59745;52.924;-2.388;2022-07-17T08:34:26;14;13;
71872;PMS5003;59745;52.924;-2.388;2022-07-17T08:36:52;8;8;
71872;PMS5003;59745;52.924;-2.388;2022-07-17T08:39:18;11;10;
71872;PMS5003;59745;52.924;-2.388;2022-07-17T08:41:43;10;9;
71872;PMS5003;59745;52.924;-2.388;2022-07-17T08:44:09;8;8;
71872;PMS5003;59745;52.924;-2.388;2022-07-17T08:46:36;10;10;
71872;PMS5003;59745;52.924;-2.388;2022-07-17T08:49:01;7;7;
71872;PMS5003;59745;52.924;-2.388;2022-07-17T08:51:27;9;8;
71872;PMS5003;59745;52.924;-2.388;2022-07-17T08:53:53;8;8;
71872;PMS5003;59745;52.924;-2.388;2022-07-17T08:56:18;7;7;
71872;PMS5003;59745;52.924;-2.388;2022-07-17T08:58:44;9;8;
71872;PMS5003;59745;52.924;-2.388;2022-07-17T09:01:10;7;7;
71872;PMS5003;59745;52.924;-2.388;2022-07-17T09:03:36;7;7;
71872;PMS5003;59745;52.924;-2.388;2022-07-17T09:06:02;6;6;
71872;PMS5003;59745;52.924;-2.388;2022-07-17T09:08:27;7;7;
71872;PMS5003;59745;52.924;-2.388;2022-07-17T09:10:53;8;7;
71872;PMS5003;59745;52.924;-2.388;2022-07-17T09:13:20;8;7;
71872;PMS5003;59745;52.924;-2.388;2022-07-17T09:15:45;9;9;
71872;PMS5003;59745;52.924;-2.388;2022-07-17T09:18:10;9;9;
71872;PMS5003;59745;52.924;-2.388;2022-07-17T09:20:38;7;7;
71872;PMS5003;59745;52.924;-2.388;2022-07-17T09:23:02;8;8;
71872;PMS5003;59745;52.924;-2.388;2022-07-17T09:25:31;8;7;
71872;PMS5003;59745;52.924;-2.388;2022-07-17T09:27:53;9;9;
71872;PMS5003;59745;52.924;-2.388;2022-07-17T09:30:19;7;6;
71872;PMS5003;59745;52.924;-2.388;2022-07-17T09:32:45;7;6;
71872;PMS5003;59745;52.924;-2.388;2022-07-17T09:35:11;10;9;
71872;PMS5003;59745;52.924;-2.388;2022-07-17T09:37:37;7;7;
71872;PMS5003;59745;52.924;-2.388;2022-07-17T09:40:09;7;6;
71872;PMS5003;59745;52.924;-2.388;2022-07-17T09:42:28;8;7;
71872;PMS5003;59745;52.924;-2.388;2022-07-17T09:44:55;7;7;
71872;PMS5003;59745;52.924;-2.388;2022-07-17T09:47:20;9;9;
71872;PMS5003;59745;52.924;-2.388;2022-07-17T09:49:45;9;8;
71872;PMS5003;59745;52.924;-2.388;2022-07-17T09:52:11;7;7;
71872;PMS5003;59745;52.924;-2.388;2022-07-17T09:54:37;9;9;
71872;PMS5003;59745;52.924;-2.388;2022-07-17T09:57:03;6;6;
71872;PMS5003;59745;52.924;-2.388;2022-07-17T09:59:29;9;8;
71872;PMS5003;59745;52.924;-2.388;2022-07-17T10:01:55;6;6;
71872;PMS5003;59745;52.924;-2.388;2022-07-17T10:04:20;6;6;
71872;PMS5003;59745;52.924;-2.388;2022-07-17T10:06:46;6;6;
71872;PMS5003;59745;52.924;-2.388;2022-07-17T10:09:12;8;6;
71872;PMS5003;59745;52.924;-2.388;2022-07-17T10:11:39;4;4;
71872;PMS5003;59745;52.924;-2.388;2022-07-17T10:14:04;5;5;
71872;PMS5003;59745;52.924;-2.388;2022-07-17T10:16:30;6;6;
71872;PMS5003;59745;52.924;-2.388;2022-07-17T10:18:55;6;6;
71872;PMS5003;59745;52.924;-2.388;2022-07-17T10:21:22;8;7;
71872;PMS5003;59745;52.924;-2.388;2022-07-17T10:23:48;6;5;
71872;PMS5003;59745;52.924;-2.388;2022-07-17T10:26:12;5;5;
71872;PMS5003;59745;52.924;-2.388;2022-07-17T10:28:40;5;5;
71872;PMS5003;59745;52.924;-2.388;2022-07-17T10:31:04;6;6;
71872;PMS5003;59745;52.924;-2.388;2022-07-17T10:33:30;6;5;
71872;PMS5003;59745;52.924;-2.388;2022-07-17T10:35:56;7;7;
71872;PMS5003;59745;52.924;-2.388;2022-07-17T10:38:21;5;4;
71872;PMS5003;59745;52.924;-2.388;2022-07-17T10:40:47;6;6;
71872;PMS5003;59745;52.924;-2.388;2022-07-17T10:43:13;7;6;
71872;PMS5003;59745;52.924;-2.388;2022-07-17T10:45:40;6;6;
71872;PMS5003;59745;52.924;-2.388;2022-07-17T10:48:05;5;5;
71872;PMS5003;59745;52.924;-2.388;2022-07-17T10:50:31;7;7;
71872;PMS5003;59745;52.924;-2.388;2022-07-17T10:52:57;4;4;
71872;PMS5003;59745;52.924;-2.388;2022-07-17T10:55:22;7;6;
71872;PMS5003;59745;52.924;-2.388;2022-07-17T10:57:48;6;6;
71872;PMS5003;59745;52.924;-2.388;2022-07-17T11:00:14;5;5;
71872;PMS5003;59745;52.924;-2.388;2022-07-17T11:02:39;7;6;
71872;PMS5003;59745;52.924;-2.388;2022-07-17T11:05:05;8;6;
71872;PMS5003;59745;52.924;-2.388;2022-07-17T11:07:31;4;4;
71872;PMS5003;59745;52.924;-2.388;2022-07-17T11:09:57;7;6;
71872;PMS5003;59745;52.924;-2.388;2022-07-17T11:14:48;5;5;
71872;PMS5003;59745;52.924;-2.388;2022-07-17T11:17:18;5;5;
71872;PMS5003;59745;52.924;-2.388;2022-07-17T11:19:40;4;4;
71872;PMS5003;59745;52.924;-2.388;2022-07-17T11:22:08;8;8;
71872;PMS5003;59745;52.924;-2.388;2022-07-17T11:24:35;7;6;
71872;PMS5003;59745;52.924;-2.388;2022-07-17T11:26:57;6;6;
71872;PMS5003;59745;52.924;-2.388;2022-07-17T11:29:23;6;5;
71872;PMS5003;59745;52.924;-2.388;2022-07-17T11:31:54;6;6;
71872;PMS5003;59745;52.924;-2.388;2022-07-17T11:34:15;17;17;
71872;PMS5003;59745;52.924;-2.388;2022-07-17T11:36:41;11;11;
71872;PMS5003;59745;52.924;-2.388;2022-07-17T11:39:07;22;21;
71872;PMS5003;59745;52.924;-2.388;2022-07-17T11:41:33;7;7;
71872;PMS5003;59745;52.924;-2.388;2022-07-17T11:43:58;6;6;
71872;PMS5003;59745;52.924;-2.388;2022-07-17T11:46:24;6;6;
71872;PMS5003;59745;52.924;-2.388;2022-07-17T11:48:50;5;5;
71872;PMS5003;59745;52.924;-2.388;2022-07-17T11:51:15;7;7;
71872;PMS5003;59745;52.924;-2.388;2022-07-17T11:53:41;6;5;
71872;PMS5003;59745;52.924;-2.388;2022-07-17T11:56:07;8;7;
71872;PMS5003;59745;52.924;-2.388;2022-07-17T11:58:42;5;5;
71872;PMS5003;59745;52.924;-2.388;2022-07-17T12:00:59;5;5;
71872;PMS5003;59745;52.924;-2.388;2022-07-17T12:03:25;4;4;
71872;PMS5003;59745;52.924;-2.388;2022-07-17T12:05:50;8;6;
71872;PMS5003;59745;52.924;-2.388;2022-07-17T12:08:18;7;7;
71872;PMS5003;59745;52.924;-2.388;2022-07-17T12:10:42;6;6;
71872;PMS5003;59745;52.924;-2.388;2022-07-17T12:13:08;4;4;
71872;PMS5003;59745;52.924;-2.388;2022-07-17T12:15:34;7;7;
71872;PMS5003;59745;52.924;-2.388;2022-07-17T12:17:59;4;4;
71872;PMS5003;59745;52.924;-2.388;2022-07-17T12:20:25;5;5;
71872;PMS5003;59745;52.924;-2.388;2022-07-17T12:22:51;7;7;
71872;PMS5003;59745;52.924;-2.388;2022-07-17T12:27:42;7;7;
71872;PMS5003;59745;52.924;-2.388;2022-07-17T12:30:08;5;5;
71872;PMS5003;59745;52.924;-2.388;2022-07-17T12:34:59;5;5;
71872;PMS5003;59745;52.924;-2.388;2022-07-17T12:37:25;8;8;
71872;PMS5003;59745;52.924;-2.388;2022-07-17T12:39:56;6;6;
71872;PMS5003;59745;52.924;-2.388;2022-07-17T12:42:17;7;7;
71872;PMS5003;59745;52.924;-2.388;2022-07-17T12:44:43;7;7;
71872;PMS5003;59745;52.924;-2.388;2022-07-17T12:47:09;6;6;
71872;PMS5003;59745;52.924;-2.388;2022-07-17T12:49:34;5;5;
71872;PMS5003;59745;52.924;-2.388;2022-07-17T12:52:00;8;6;
71872;PMS5003;59745;52.924;-2.388;2022-07-17T12:54:26;7;6;
71872;PMS5003;59745;52.924;-2.388;2022-07-17T12:56:51;7;7;
71872;PMS5003;59745;52.924;-2.388;2022-07-17T12:59:17;5;5;
71872;PMS5003;59745;52.924;-2.388;2022-07-17T13:01:43;7;7;
71872;PMS5003;59745;52.924;-2.388;2022-07-17T13:04:09;4;4;
71872;PMS5003;59745;52.924;-2.388;2022-07-17T13:06:34;5;5;
71872;PMS5003;59745;52.924;-2.388;2022-07-17T13:09:01;6;6;
71872;PMS5003;59745;52.924;-2.388;2022-07-17T13:11:26;7;5;
71872;PMS5003;59745;52.924;-2.388;2022-07-17T13:13:52;7;7;
71872;PMS5003;59745;52.924;-2.388;2022-07-17T13:16:17;8;8;
71872;PMS5003;59745;52.924;-2.388;2022-07-17T13:18:43;9;7;
71872;PMS5003;59745;52.924;-2.388;2022-07-17T13:21:09;8;7;
71872;PMS5003;59745;52.924;-2.388;2022-07-17T13:23:35;7;6;
71872;PMS5003;59745;52.924;-2.388;2022-07-17T13:26:01;7;7;
71872;PMS5003;59745;52.924;-2.388;2022-07-17T13:28:26;6;6;
71872;PMS5003;59745;52.924;-2.388;2022-07-17T13:30:57;6;6;
71872;PMS5003;59745;52.924;-2.388;2022-07-17T13:33:18;6;6;
71872;PMS5003;59745;52.924;-2.388;2022-07-17T13:35:43;6;6;
71872;PMS5003;59745;52.924;-2.388;2022-07-17T13:38:09;6;5;
71872;PMS5003;59745;52.924;-2.388;2022-07-17T13:40:35;6;6;
71872;PMS5003;59745;52.924;-2.388;2022-07-17T13:43:01;5;5;
71872;PMS5003;59745;52.924;-2.388;2022-07-17T13:45:27;6;5;
71872;PMS5003;59745;52.924;-2.388;2022-07-17T13:47:52;8;7;
71872;PMS5003;59745;52.924;-2.388;2022-07-17T13:50:18;6;6;
71872;PMS5003;59745;52.924;-2.388;2022-07-17T13:52:44;6;6;
71872;PMS5003;59745;52.924;-2.388;2022-07-17T13:55:10;7;6;
71872;PMS5003;59745;52.924;-2.388;2022-07-17T13:57:35;7;7;
71872;PMS5003;59745;52.924;-2.388;2022-07-17T14:00:02;7;7;
71872;PMS5003;59745;52.924;-2.388;2022-07-17T14:02:27;7;7;
71872;PMS5003;59745;52.924;-2.388;2022-07-17T14:04:53;7;7;
71872;PMS5003;59745;52.924;-2.388;2022-07-17T14:07:18;6;5;
71872;PMS5003;59745;52.924;-2.388;2022-07-17T14:09:44;6;6;
71872;PMS5003;59745;52.924;-2.388;2022-07-17T14:12:10;6;6;
71872;PMS5003;59745;52.924;-2.388;2022-07-17T14:14:36;7;6;
71872;PMS5003;59745;52.924;-2.388;2022-07-17T14:17:02;6;6;
71872;PMS5003;59745;52.924;-2.388;2022-07-17T14:19:27;5;5;
71872;PMS5003;59745;52.924;-2.388;2022-07-17T14:21:53;7;7;
71872;PMS5003;59745;52.924;-2.388;2022-07-17T14:24:19;6;6;
71872;PMS5003;59745;52.924;-2.388;2022-07-17T14:26:45;7;7;
71872;PMS5003;59745;52.924;-2.388;2022-07-17T14:29:10;7;5;
71872;PMS5003;59745;52.924;-2.388;2022-07-17T14:31:36;6;6;
71872;PMS5003;59745;52.924;-2.388;2022-07-17T14:34:02;5;5;
71872;PMS5003;59745;52.924;-2.388;2022-07-17T14:36:28;6;6;
71872;PMS5003;59745;52.924;-2.388;2022-07-17T14:38:53;7;7;
71872;PMS5003;59745;52.924;-2.388;2022-07-17T14:41:19;5;5;
71872;PMS5003;59745;52.924;-2.388;2022-07-17T14:43:45;6;6;
71872;PMS5003;59745;52.924;-2.388;2022-07-17T14:46:11;7;7;
71872;PMS5003;59745;52.924;-2.388;2022-07-17T14:48:37;6;6;
71872;PMS5003;59745;52.924;-2.388;2022-07-17T14:51:02;6;6;
71872;PMS5003;59745;52.924;-2.388;2022-07-17T14:53:28;8;7;
71872;PMS5003;59745;52.924;-2.388;2022-07-17T14:55:54;6;6;
71872;PMS5003;59745;52.924;-2.388;2022-07-17T14:58:20;7;7;
71872;PMS5003;59745;52.924;-2.388;2022-07-17T15:00:45;6;6;
71872;PMS5003;59745;52.924;-2.388;2022-07-17T15:03:11;5;5;
71872;PMS5003;59745;52.924;-2.388;2022-07-17T15:05:37;5;5;
71872;PMS5003;59745;52.924;-2.388;2022-07-17T15:08:03;5;5;
71872;PMS5003;59745;52.924;-2.388;2022-07-17T15:10:28;6;6;
71872;PMS5003;59745;52.924;-2.388;2022-07-17T15:12:54;5;5;
71872;PMS5003;59745;52.924;-2.388;2022-07-17T15:15:20;6;4;
71872;PMS5003;59745;52.924;-2.388;2022-07-17T15:17:45;7;6;
71872;PMS5003;59745;52.924;-2.388;2022-07-17T15:20:11;5;5;
71872;PMS5003;59745;52.924;-2.388;2022-07-17T15:22:37;7;6;
71872;PMS5003;59745;52.924;-2.388;2022-07-17T15:25:03;9;8;
71872;PMS5003;59745;52.924;-2.388;2022-07-17T15:27:29;6;6;
71872;PMS5003;59745;52.924;-2.388;2022-07-17T15:29:54;7;7;
71872;PMS5003;59745;52.924;-2.388;2022-07-17T15:32:20;6;6;
71872;PMS5003;59745;52.924;-2.388;2022-07-17T15:34:46;6;6;
71872;PMS5003;59745;52.924;-2.388;2022-07-17T15:37:12;7;6;
71872;PMS5003;59745;52.924;-2.388;2022-07-17T15:39:37;6;5;
71872;PMS5003;59745;52.924;-2.388;2022-07-17T15:42:03;3;3;
71872;PMS5003;59745;52.924;-2.388;2022-07-17T15:44:29;7;7;
71872;PMS5003;59745;52.924;-2.388;2022-07-17T15:46:55;6;5;
71872;PMS5003;59745;52.924;-2.388;2022-07-17T15:49:21;5;5;
71872;PMS5003;59745;52.924;-2.388;2022-07-17T15:51:46;7;7;
71872;PMS5003;59745;52.924;-2.388;2022-07-17T15:54:12;8;6;
71872;PMS5003;59745;52.924;-2.388;2022-07-17T15:56:38;20;16;
71872;PMS5003;59745;52.924;-2.388;2022-07-17T15:59:03;82;78;
71872;PMS5003;59745;52.924;-2.388;2022-07-17T16:01:29;35;34;
71872;PMS5003;59745;52.924;-2.388;2022-07-17T16:03:55;27;26;
71872;PMS5003;59745;52.924;-2.388;2022-07-17T16:06:21;34;33;
71872;PMS5003;59745;52.924;-2.388;2022-07-17T16:08:46;20;19;
71872;PMS5003;59745;52.924;-2.388;2022-07-17T16:11:12;32;30;
71872;PMS5003;59745;52.924;-2.388;2022-07-17T16:13:38;13;13;